Time;durP1;ratioP1;P1;durP2;ratioP2;P2;SDS_P1;SDS_P2;PMS_P1;PMS_P2;Temp;Humidity;BMP_temperature;BMP_pressure;BME280_temperature;BME280_humidity;BME280_pressure;Samples;Min_cycle;Max_cycle;Signal;HPM_P1;HPM_P2
2023/11/22 00:01:49;;;;;;;18.85;13.38;;;;;;;7.80;58.29;93134.22;4933698;28;20589;-76
2023/11/22 00:04:15;;;;;;;18.20;11.90;;;;;;;7.80;58.56;93142.16;4945418;28;20039;-77
2023/11/22 00:06:41;;;;;;;18.20;11.63;;;;;;;7.78;58.45;93117.88;4949696;28;20023;-76
2023/11/22 00:09:06;;;;;;;12.68;8.85;;;;;;;8.00;58.16;93120.34;4933086;28;20153;-76
2023/11/22 00:11:32;;;;;;;13.10;8.70;;;;;;;7.82;58.43;93108.22;4934653;28;20054;-75
2023/11/22 00:13:57;;;;;;;13.73;8.45;;;;;;;8.02;58.34;93134.81;4935844;28;20241;-76
2023/11/22 00:16:23;;;;;;;15.25;8.75;;;;;;;8.07;58.51;93125.97;4931911;28;20035;-77
2023/11/22 00:18:49;;;;;;;13.82;8.68;;;;;;;8.22;58.05;93136.03;4934799;28;20024;-76
2023/11/22 00:21:15;;;;;;;12.15;7.97;;;;;;;8.21;57.97;93131.84;4936312;28;20082;-77
2023/11/22 00:23:40;;;;;;;18.77;10.50;;;;;;;8.29;58.01;93130.28;4934638;28;20036;-75
2023/11/22 00:26:06;;;;;;;15.43;10.55;;;;;;;8.33;57.52;93139.94;4934466;28;20038;-77
2023/11/22 00:28:32;;;;;;;20.27;11.32;;;;;;;8.12;57.76;93109.88;4936063;28;20263;-76
2023/11/22 00:30:58;;;;;;;18.13;12.20;;;;;;;8.04;57.81;93114.09;4935365;28;20036;-75
2023/11/22 00:33:24;;;;;;;17.02;10.80;;;;;;;8.25;57.72;93137.28;4934928;28;20042;-76
2023/11/22 00:35:50;;;;;;;16.35;12.07;;;;;;;8.26;57.48;93115.81;4932523;28;20920;-76
2023/11/22 00:38:17;;;;;;;20.40;12.60;;;;;;;8.27;57.83;93127.94;4931257;28;20599;-75
2023/11/22 00:40:42;;;;;;;17.83;12.45;;;;;;;8.27;58.01;93146.47;4932817;28;20141;-76
2023/11/22 00:43:11;;;;;;;23.33;14.95;;;;;;;8.31;57.55;93136.03;4934157;28;20035;-76
2023/11/22 00:45:37;;;;;;;22.73;14.73;;;;;;;8.40;57.34;93147.41;4934268;28;20066;-76
2023/11/22 00:48:05;;;;;;;22.90;14.95;;;;;;;8.29;57.08;93139.00;4933345;28;20161;-76
2023/11/22 00:50:30;;;;;;;20.27;13.80;;;;;;;8.20;57.09;93119.69;4930880;28;20044;-76
2023/11/22 00:52:56;;;;;;;23.10;15.02;;;;;;;8.35;57.24;93145.69;4929358;28;20086;-76
2023/11/22 00:55:21;;;;;;;18.58;14.90;;;;;;;8.42;57.40;93138.03;4934169;28;20031;-76
2023/11/22 00:57:47;;;;;;;24.08;15.63;;;;;;;8.01;58.66;93127.19;4936360;28;20031;-77
2023/11/22 01:00:15;;;;;;;30.00;15.55;;;;;;;8.13;57.66;93127.34;4946889;28;20530;-76
2023/11/22 01:02:40;;;;;;;26.25;16.67;;;;;;;8.04;58.18;93118.63;4949133;28;20122;-77
2023/11/22 01:05:11;;;;;;;26.40;14.93;;;;;;;8.13;58.16;93120.16;4933098;28;20533;-77
2023/11/22 01:07:37;;;;;;;23.67;14.40;;;;;;;8.13;57.46;93103.50;4932018;28;20570;-75
2023/11/22 01:10:03;;;;;;;24.88;14.82;;;;;;;8.43;56.94;93122.91;4932196;28;20078;-76
2023/11/22 01:12:28;;;;;;;23.77;15.23;;;;;;;8.46;56.92;93130.25;4930969;28;20118;-76
2023/11/22 01:14:54;;;;;;;25.25;15.73;;;;;;;8.48;57.05;93112.16;4931671;28;20042;-75
2023/11/22 01:17:19;;;;;;;22.60;15.02;;;;;;;8.43;57.20;93097.19;4933060;28;20515;-76
2023/11/22 01:19:44;;;;;;;18.58;11.75;;;;;;;8.56;57.14;93096.22;4946249;28;20039;-76
2023/11/22 01:22:10;;;;;;;16.65;11.80;;;;;;;8.30;56.70;93061.09;4934875;28;20063;-74
2023/11/22 01:24:37;;;;;;;22.63;13.57;;;;;;;8.48;56.99;93094.38;4934796;28;20032;-75
2023/11/22 01:27:03;;;;;;;36.47;23.55;;;;;;;8.36;57.25;93090.84;4933155;28;20511;-76
2023/11/22 01:29:28;;;;;;;26.13;17.15;;;;;;;8.03;58.42;93114.41;4931400;28;20132;-76
2023/11/22 01:31:55;;;;;;;23.58;15.13;;;;;;;8.21;58.21;93109.88;4931812;28;20059;-76
2023/11/22 01:34:20;;;;;;;24.67;17.13;;;;;;;8.35;57.75;93090.06;4931856;28;20027;-77
2023/11/22 01:36:49;;;;;;;26.27;17.85;;;;;;;8.36;57.34;93070.44;4933784;28;20043;-76
2023/11/22 01:39:14;;;;;;;25.75;16.58;;;;;;;8.52;57.34;93084.69;4933369;28;20075;-76
2023/11/22 01:41:41;;;;;;;25.17;15.25;;;;;;;8.53;56.85;93073.00;4930175;28;20495;-76
2023/11/22 01:44:08;;;;;;;22.13;14.38;;;;;;;8.46;57.18;93054.16;4929005;28;20047;-77
2023/11/22 01:46:34;;;;;;;17.95;12.25;;;;;;;8.66;56.87;93081.09;4931496;28;20034;-76
2023/11/22 01:49:00;;;;;;;19.00;14.35;;;;;;;8.51;56.88;93071.78;4933375;28;20019;-76
2023/11/22 01:51:26;;;;;;;19.00;12.30;;;;;;;8.24;57.63;93050.97;4932852;28;20943;-77
2023/11/22 01:53:55;;;;;;;23.35;14.80;;;;;;;8.48;57.36;93075.81;4928681;28;20031;-76
2023/11/22 01:56:23;;;;;;;18.58;13.20;;;;;;;8.39;57.53;93075.09;4932352;28;20938;-76
2023/11/22 01:58:49;;;;;;;20.05;13.82;;;;;;;8.33;57.14;93065.75;4930370;28;20183;-75
2023/11/22 02:01:15;;;;;;;21.63;13.90;;;;;;;8.44;57.33;93077.56;4933495;28;20070;-76
2023/11/22 02:03:41;;;;;;;23.83;13.35;;;;;;;8.43;57.35;93064.63;4932368;28;20426;-76
2023/11/22 02:06:11;;;;;;;20.15;14.43;;;;;;;8.52;56.83;93071.44;4946330;28;20518;-76
2023/11/22 02:08:37;;;;;;;29.65;16.88;;;;;;;7.92;57.85;93066.31;4943060;28;20091;-76
2023/11/22 02:11:03;;;;;;;24.63;16.52;;;;;;;7.96;58.22;93069.09;4932076;28;20055;-76
2023/11/22 02:13:30;;;;;;;23.65;16.05;;;;;;;8.11;58.50;93076.56;4927914;28;20171;-75
2023/11/22 02:15:56;;;;;;;22.10;15.55;;;;;;;8.19;58.17;93064.38;4934141;28;20109;-76
2023/11/22 02:18:28;;;;;;;23.27;15.82;;;;;;;8.21;57.78;93057.69;4925746;28;20042;-76
2023/11/22 02:20:53;;;;;;;20.17;14.00;;;;;;;8.31;57.79;93067.16;4930615;28;20043;-76
2023/11/22 02:23:19;;;;;;;23.55;15.60;;;;;;;8.23;57.56;93066.09;4937471;28;20438;-77
2023/11/22 02:25:48;;;;;;;24.08;15.55;;;;;;;8.12;58.06;93067.50;4931342;28;20096;-76
2023/11/22 02:28:14;;;;;;;23.42;15.50;;;;;;;8.12;57.68;93059.56;4933066;28;20504;-76
2023/11/22 02:30:39;;;;;;;22.70;15.07;;;;;;;8.13;57.96;93074.38;4932317;28;20023;-75
2023/11/22 02:33:05;;;;;;;20.73;14.38;;;;;;;8.38;57.44;93088.63;4933337;28;20042;-77
2023/11/22 02:35:34;;;;;;;24.00;15.43;;;;;;;8.38;57.26;93073.53;4931725;28;20027;-76
2023/11/22 02:38:00;;;;;;;22.77;15.93;;;;;;;8.51;56.49;93072.53;4932999;28;20150;-76
2023/11/22 02:40:26;;;;;;;17.30;14.23;;;;;;;8.42;56.92;93063.84;4934079;28;20027;-76
2023/11/22 02:42:53;;;;;;;21.48;13.75;;;;;;;8.55;56.88;93067.41;4931249;28;20023;-74
2023/11/22 02:45:24;;;;;;;19.23;13.57;;;;;;;8.58;57.02;93067.53;4932878;28;20040;-75
2023/11/22 02:47:49;;;;;;;22.10;15.00;;;;;;;8.56;55.95;93047.72;4932121;28;20399;-76
2023/11/22 02:50:18;;;;;;;17.63;13.43;;;;;;;8.52;56.75;93066.16;4932984;28;20043;-76
2023/11/22 02:52:44;;;;;;;20.40;13.05;;;;;;;8.38;57.19;93057.63;4929750;28;20118;-76
2023/11/22 02:55:10;;;;;;;19.77;13.43;;;;;;;8.48;56.88;93062.56;4934150;28;20038;-76
2023/11/22 02:57:36;;;;;;;18.33;12.35;;;;;;;8.31;56.70;93036.16;4947296;28;20118;-75
2023/11/22 03:00:04;;;;;;;21.48;14.00;;;;;;;8.22;57.31;93053.94;4932258;28;20031;-77
2023/11/22 03:02:29;;;;;;;19.85;13.82;;;;;;;8.36;57.36;93065.13;4930556;28;20023;-75
2023/11/22 03:04:55;;;;;;;20.75;13.40;;;;;;;8.44;57.13;93072.25;4932808;28;20042;-75
2023/11/22 03:07:20;;;;;;;19.60;13.45;;;;;;;8.40;57.50;93066.03;4932172;28;20031;-76
2023/11/22 03:09:46;;;;;;;18.00;12.07;;;;;;;8.34;57.59;93051.41;4928375;28;20023;-75
2023/11/22 03:12:12;;;;;;;18.77;13.35;;;;;;;8.36;57.44;93065.13;4929740;28;20515;-76
2023/11/22 03:14:38;;;;;;;20.10;13.45;;;;;;;8.41;56.66;93062.28;4932438;28;20075;-76
2023/11/22 03:17:04;;;;;;;19.45;14.02;;;;;;;8.29;57.69;93070.13;4933090;28;20031;-76
2023/11/22 03:19:30;;;;;;;16.98;11.43;;;;;;;8.19;57.67;93081.06;4931809;28;20636;-76
2023/11/22 03:21:56;;;;;;;14.10;10.40;;;;;;;8.29;57.51;93075.41;4933152;28;20027;-77
2023/11/22 03:24:22;;;;;;;17.65;11.02;;;;;;;8.27;57.59;93082.91;4929598;28;20035;-76
2023/11/22 03:26:47;;;;;;;15.75;11.05;;;;;;;8.22;57.76;93075.13;4931513;28;20542;-76
2023/11/22 03:29:16;;;;;;;19.23;11.38;;;;;;;8.42;57.74;93100.16;4929621;28;20512;-77
2023/11/22 03:31:42;;;;;;;15.68;10.30;;;;;;;8.37;57.68;93069.31;4935764;28;20059;-76
2023/11/22 03:34:08;;;;;;;17.17;11.23;;;;;;;8.22;58.32;93084.97;4931125;28;20761;-77
2023/11/22 03:36:34;;;;;;;15.00;9.48;;;;;;;8.04;57.88;93041.81;4928390;28;20056;-76
2023/11/22 03:38:59;;;;;;;15.13;10.77;;;;;;;8.26;58.12;93067.34;4930916;28;20027;-76
2023/11/22 03:41:25;;;;;;;13.88;10.07;;;;;;;8.33;58.06;93071.03;4930294;28;20042;-76
2023/11/22 03:43:50;;;;;;;13.05;9.30;;;;;;;8.33;57.78;93065.75;4936262;28;20486;-75
2023/11/22 03:46:15;;;;;;;14.20;10.18;;;;;;;8.25;58.28;93057.81;4932200;28;20035;-75
2023/11/22 03:48:41;;;;;;;12.70;9.88;;;;;;;8.38;58.18;93072.75;4932069;28;20050;-77
2023/11/22 03:51:06;;;;;;;15.18;10.93;;;;;;;8.40;58.23;93066.03;4928512;28;20957;-77
2023/11/22 03:53:32;;;;;;;15.90;10.07;;;;;;;8.47;57.97;93070.84;4930436;28;20035;-76
2023/11/22 03:55:57;;;;;;;14.40;10.13;;;;;;;8.50;57.59;93073.66;4935144;28;20123;-76
2023/11/22 03:58:23;;;;;;;20.65;10.65;;;;;;;8.48;57.86;93069.75;4931270;28;20035;-76
2023/11/22 04:00:48;;;;;;;14.02;9.27;;;;;;;8.39;57.79;93066.34;4931010;28;20024;-77
2023/11/22 04:03:14;;;;;;;14.40;10.55;;;;;;;8.47;57.35;93076.91;4929265;28;20035;-77
2023/11/22 04:05:39;;;;;;;17.20;10.38;;;;;;;8.40;57.90;93079.28;4930136;28;20075;-76
2023/11/22 04:08:05;;;;;;;15.30;9.85;;;;;;;8.18;57.89;93053.00;4929536;28;20035;-74
2023/11/22 04:10:31;;;;;;;18.55;11.07;;;;;;;7.59;57.44;92954.06;4930727;28;20561;-77
2023/11/22 04:12:57;;;;;;;22.23;11.75;;;;;;;8.44;57.61;93093.47;4931531;28;20027;-76
2023/11/22 04:15:22;;;;;;;16.25;10.93;;;;;;;8.37;57.65;93092.38;4945139;28;20510;-76
2023/11/22 04:17:48;;;;;;;18.52;10.25;;;;;;;8.36;57.96;93094.28;4930133;28;20039;-76
2023/11/22 04:20:15;;;;;;;19.35;11.40;;;;;;;8.44;57.57;93104.06;4928532;28;20039;-76
2023/11/22 04:22:41;;;;;;;15.18;10.77;;;;;;;8.43;57.76;93118.41;4931501;28;20090;-76
2023/11/22 04:25:08;;;;;;;13.30;9.32;;;;;;;8.40;57.49;93102.34;4930744;28;20023;-76
2023/11/22 04:27:34;;;;;;;15.07;10.15;;;;;;;8.53;57.36;93107.47;4930629;28;20036;-76
2023/11/22 04:30:00;;;;;;;15.77;10.32;;;;;;;8.57;57.21;93103.06;4931636;28;20086;-77
2023/11/22 04:32:25;;;;;;;15.60;10.23;;;;;;;8.49;57.76;93133.03;4924363;28;20410;-77
2023/11/22 04:34:51;;;;;;;17.00;10.13;;;;;;;8.45;57.87;93107.50;4930535;28;20512;-75
2023/11/22 04:37:16;;;;;;;15.82;9.90;;;;;;;8.55;58.03;93101.84;4927870;28;20052;-76
2023/11/22 04:39:41;;;;;;;12.35;7.72;;;;;;;8.50;57.78;93105.44;4931708;28;20027;-76
2023/11/22 04:42:07;;;;;;;9.60;6.28;;;;;;;8.56;57.82;93111.34;4929850;28;20035;-76
2023/11/22 04:44:32;;;;;;;12.55;8.25;;;;;;;8.21;58.61;93115.19;4930145;28;20031;-76
2023/11/22 04:47:01;;;;;;;13.15;8.95;;;;;;;8.41;58.55;93125.88;4933311;28;20039;-76
2023/11/22 04:49:27;;;;;;;13.77;9.35;;;;;;;8.53;58.34;93122.56;4934584;28;20123;-76
2023/11/22 04:51:52;;;;;;;15.93;10.77;;;;;;;8.55;58.20;93113.22;4936392;28;20023;-76
2023/11/22 04:54:18;;;;;;;15.13;9.48;;;;;;;8.66;58.98;93150.00;4932875;28;20122;-76
2023/11/22 04:56:44;;;;;;;16.95;10.73;;;;;;;8.63;58.72;93153.25;4932959;28;20507;-76
2023/11/22 04:59:09;;;;;;;15.10;11.73;;;;;;;8.52;58.65;93153.59;4934398;28;20090;-77
2023/11/22 05:01:35;;;;;;;32.10;17.55;;;;;;;8.65;58.56;93180.25;4935096;28;20055;-76
2023/11/22 05:04:00;;;;;;;33.50;17.88;;;;;;;8.63;58.92;93179.78;4932427;28;20039;-76
2023/11/22 05:06:27;;;;;;;31.10;16.92;;;;;;;8.63;59.41;93185.06;4934766;28;20035;-76
2023/11/22 05:08:53;;;;;;;19.70;13.75;;;;;;;8.61;59.33;93176.69;4931048;28;20310;-76
2023/11/22 05:11:19;;;;;;;22.80;12.48;;;;;;;8.51;59.36;93189.13;4931264;28;20055;-77
2023/11/22 05:13:44;;;;;;;20.45;12.20;;;;;;;8.54;59.91;93193.81;4932379;28;20102;-76
2023/11/22 05:16:10;;;;;;;17.10;11.32;;;;;;;8.53;60.23;93188.84;4934923;28;20043;-76
2023/11/22 05:18:36;;;;;;;21.52;13.52;;;;;;;8.43;60.62;93179.34;4934698;28;20388;-76
2023/11/22 05:21:03;;;;;;;22.38;14.48;;;;;;;8.42;60.89;93196.31;4932758;28;20468;-76
2023/11/22 05:23:29;;;;;;;22.55;13.13;;;;;;;8.34;61.86;93199.78;4946310;28;20400;-76
2023/11/22 05:25:56;;;;;;;24.58;14.63;;;;;;;8.24;62.16;93208.03;4932476;28;20608;-76
2023/11/22 05:28:22;;;;;;;27.90;16.63;;;;;;;8.29;62.51;93218.47;4933892;28;20471;-76
2023/11/22 05:30:49;;;;;;;29.05;18.40;;;;;;;8.40;61.96;93208.34;4934960;28;20035;-76
2023/11/22 05:33:19;;;;;;;35.50;19.50;;;;;;;8.42;61.06;93206.94;4945427;28;20130;-77
2023/11/22 05:35:45;;;;;;;25.95;18.27;;;;;;;8.28;62.16;93218.78;4936948;28;20050;-76
2023/11/22 05:38:10;;;;;;;20.65;15.38;;;;;;;8.25;62.01;93217.53;4932506;28;20048;-76
2023/11/22 05:40:36;;;;;;;20.13;14.48;;;;;;;8.46;61.69;93225.66;4931714;28;20040;-76
2023/11/22 05:43:02;;;;;;;19.45;14.18;;;;;;;8.55;61.59;93224.53;4930148;28;20471;-75
2023/11/22 05:45:27;;;;;;;18.95;14.43;;;;;;;8.50;61.40;93214.09;4931199;28;20035;-77
2023/11/22 05:47:52;;;;;;;22.92;14.98;;;;;;;8.48;62.16;93199.59;4925659;28;20367;-76
2023/11/22 05:50:18;;;;;;;24.77;16.45;;;;;;;8.53;62.39;93229.38;4933867;28;20350;-76
2023/11/22 05:52:44;;;;;;;27.67;17.77;;;;;;;8.49;63.21;93232.97;4934768;28;20039;-75
2023/11/22 05:55:13;;;;;;;22.70;15.77;;;;;;;8.49;62.66;93238.25;4946105;28;20043;-76
2023/11/22 05:57:40;;;;;;;23.77;16.45;;;;;;;8.53;62.15;93249.78;4961898;28;20040;-75
2023/11/22 06:00:12;;;;;;;21.20;14.60;;;;;;;8.50;62.18;93251.22;4932903;28;20505;-76
2023/11/22 06:02:38;;;;;;;27.52;16.63;;;;;;;8.59;63.00;93249.31;4932036;28;20032;-76
2023/11/22 06:05:05;;;;;;;20.98;13.60;;;;;;;8.52;63.40;93254.31;4946425;28;20215;-75
2023/11/22 06:07:31;;;;;;;18.98;14.65;;;;;;;8.65;63.00;93249.94;4934439;28;20027;-76
2023/11/22 06:10:00;;;;;;;25.30;16.48;;;;;;;8.61;63.05;93258.84;4923737;28;20139;-75
2023/11/22 06:12:25;;;;;;;21.10;15.60;;;;;;;8.57;62.81;93248.84;4934198;28;20082;-75
2023/11/22 06:14:51;;;;;;;21.88;15.93;;;;;;;8.55;63.27;93248.41;4923696;28;20474;-75
2023/11/22 06:17:18;;;;;;;21.67;15.85;;;;;;;8.71;63.30;93269.09;4947119;28;20132;-76
2023/11/22 06:19:44;;;;;;;32.13;18.83;;;;;;;8.80;63.09;93280.50;4930769;28;20043;-75
2023/11/22 06:22:09;;;;;;;24.02;18.02;;;;;;;8.69;63.28;93266.78;4929611;28;20446;-75
2023/11/22 06:24:36;;;;;;;21.95;16.27;;;;;;;8.67;63.33;93297.31;4931972;28;20046;-75
2023/11/22 06:27:02;;;;;;;21.48;16.10;;;;;;;8.67;62.99;93270.81;4926409;28;20622;-76
2023/11/22 06:29:29;;;;;;;22.95;15.82;;;;;;;8.85;62.59;93285.63;4931421;28;20310;-76
2023/11/22 06:31:54;;;;;;;24.02;16.38;;;;;;;8.86;62.84;93284.53;4931383;28;20131;-76
2023/11/22 06:34:20;;;;;;;21.98;16.55;;;;;;;8.89;62.56;93274.09;4931120;28;20031;-75
2023/11/22 06:36:45;;;;;;;22.27;16.65;;;;;;;9.03;62.77;93281.84;4936672;28;20179;-76
2023/11/22 06:39:13;;;;;;;18.95;14.82;;;;;;;9.03;62.75;93292.47;4931214;28;20047;-74
2023/11/22 06:41:41;;;;;;;23.95;15.88;;;;;;;9.00;63.42;93298.38;4930408;28;20587;-76
2023/11/22 06:44:06;;;;;;;21.73;15.45;;;;;;;8.99;63.83;93300.28;4931121;28;20031;-76
2023/11/22 06:46:31;;;;;;;20.80;15.63;;;;;;;8.92;64.53;93304.47;4933138;28;20714;-76
2023/11/22 06:48:58;;;;;;;21.13;15.00;;;;;;;8.87;64.13;93309.94;4931229;28;20023;-75
2023/11/22 06:51:24;;;;;;;24.45;15.93;;;;;;;8.80;64.07;93291.88;4932408;28;20149;-75
2023/11/22 06:53:50;;;;;;;22.85;15.75;;;;;;;8.89;64.58;93300.59;4927555;28;21091;-76
2023/11/22 06:56:19;;;;;;;22.10;15.65;;;;;;;9.05;64.39;93316.78;4933495;28;20166;-74
2023/11/22 06:58:45;;;;;;;22.38;16.55;;;;;;;8.90;64.92;93301.38;4931635;28;20063;-75
2023/11/22 07:01:10;;;;;;;19.65;13.73;;;;;;;8.96;64.77;93310.72;4927547;28;20138;-76
2023/11/22 07:03:37;;;;;;;24.73;15.55;;;;;;;8.83;64.90;93295.75;4943303;28;20090;-75
2023/11/22 07:06:04;;;;;;;21.67;14.27;;;;;;;8.94;65.08;93319.00;4930739;28;20043;-75
2023/11/22 07:08:30;;;;;;;24.73;15.45;;;;;;;8.91;65.06;93313.53;4931118;28;20039;-76
2023/11/22 07:10:56;;;;;;;19.48;15.82;;;;;;;8.80;65.79;93307.00;4926196;28;20035;-74
2023/11/22 07:13:22;;;;;;;23.45;16.45;;;;;;;8.83;66.23;93317.75;4930685;28;20503;-75
2023/11/22 07:15:48;;;;;;;30.55;17.73;;;;;;;8.93;65.80;93316.66;4948074;28;20120;-77
2023/11/22 07:18:14;;;;;;;25.15;16.73;;;;;;;8.94;65.62;93307.63;4933693;28;20051;-76
2023/11/22 07:20:39;;;;;;;28.88;17.10;;;;;;;9.14;65.75;93327.44;4927854;28;20043;-75
2023/11/22 07:23:05;;;;;;;23.20;16.27;;;;;;;9.23;65.22;93331.63;4928948;28;20027;-75
2023/11/22 07:25:31;;;;;;;25.45;16.73;;;;;;;9.31;64.58;93336.13;4931241;28;20035;-76
2023/11/22 07:27:57;;;;;;;26.60;17.75;;;;;;;9.42;64.01;93336.56;4930976;28;20028;-75
2023/11/22 07:30:23;;;;;;;28.40;20.40;;;;;;;9.29;64.30;93338.28;4930119;28;20120;-76
2023/11/22 07:32:53;;;;;;;32.33;22.38;;;;;;;9.15;64.43;93329.75;4928690;28;20035;-75
2023/11/22 07:35:19;;;;;;;39.40;24.38;;;;;;;9.14;64.80;93346.78;4924538;28;20517;-76
2023/11/22 07:37:47;;;;;;;32.92;22.17;;;;;;;9.34;64.54;93345.34;4922196;28;20129;-76
2023/11/22 07:40:13;;;;;;;34.10;21.98;;;;;;;9.23;64.85;93344.88;4926077;28;20598;-75
2023/11/22 07:42:40;;;;;;;35.15;22.67;;;;;;;9.27;63.65;93337.06;4925377;28;20023;-76
2023/11/22 07:45:06;;;;;;;64.50;38.08;;;;;;;9.25;64.36;93334.72;4923425;28;20350;-76
2023/11/22 07:47:32;;;;;;;57.33;32.83;;;;;;;9.37;63.26;93353.44;4929304;28;20065;-76
2023/11/22 07:49:59;;;;;;;44.38;27.67;;;;;;;9.39;63.53;93348.56;4923735;28;20031;-75
2023/11/22 07:52:30;;;;;;;29.10;21.80;;;;;;;9.38;62.36;93343.59;4922197;28;21137;-75
2023/11/22 07:54:57;;;;;;;29.50;20.80;;;;;;;9.36;62.82;93354.53;4925175;28;20039;-75
2023/11/22 07:57:23;;;;;;;29.23;18.00;;;;;;;9.34;63.57;93359.34;4920296;28;20413;-75
2023/11/22 07:59:56;;;;;;;24.63;17.48;;;;;;;9.40;62.63;93358.09;4930034;28;20124;-76
2023/11/22 08:02:23;;;;;;;29.65;19.65;;;;;;;9.41;62.53;93338.44;4921510;28;20214;-75
2023/11/22 08:04:50;;;;;;;30.90;23.08;;;;;;;9.54;62.25;93349.16;4923262;28;20557;-76
2023/11/22 08:07:16;;;;;;;26.38;17.52;;;;;;;9.40;62.73;93341.41;4925050;28;20105;-76
2023/11/22 08:09:43;;;;;;;24.60;15.40;;;;;;;9.28;62.51;93320.84;4931833;28;20880;-75
2023/11/22 08:12:11;;;;;;;21.95;16.33;;;;;;;9.59;62.65;93360.38;4922459;28;20043;-75
2023/11/22 08:14:37;;;;;;;20.40;14.88;;;;;;;9.53;62.96;93369.66;4920985;28;20374;-75
2023/11/22 08:17:03;;;;;;;21.63;14.52;;;;;;;9.41;62.63;93370.28;4922725;28;20039;-75
2023/11/22 08:19:29;;;;;;;19.08;14.20;;;;;;;9.09;64.25;93359.38;4921772;28;20127;-75
2023/11/22 08:21:55;;;;;;;21.17;14.00;;;;;;;9.32;63.17;93364.22;4927409;28;20023;-76
2023/11/22 08:24:20;;;;;;;20.60;14.57;;;;;;;9.49;62.82;93359.97;4923705;28;20043;-76
2023/11/22 08:26:46;;;;;;;21.48;14.95;;;;;;;9.60;62.27;93364.59;4926087;28;20545;-75
2023/11/22 08:29:11;;;;;;;19.35;15.68;;;;;;;9.62;62.92;93374.91;4921593;28;20495;-75
2023/11/22 08:31:37;;;;;;;31.58;16.98;;;;;;;9.61;62.84;93373.34;4922313;28;20047;-76
2023/11/22 08:34:09;;;;;;;25.63;18.10;;;;;;;9.66;62.93;93373.19;4919244;28;20031;-75
2023/11/22 08:36:34;;;;;;;28.65;17.48;;;;;;;9.51;62.97;93349.81;4924935;28;20553;-76
2023/11/22 08:39:01;;;;;;;23.88;15.73;;;;;;;9.34;62.13;93359.34;4941602;28;20032;-75
2023/11/22 08:41:29;;;;;;;23.90;17.88;;;;;;;9.67;60.86;93377.41;4926863;28;20043;-76
2023/11/22 08:43:55;;;;;;;26.15;17.83;;;;;;;9.67;61.25;93372.09;4925736;28;20094;-75
2023/11/22 08:46:39;;;;;;;27.27;17.70;;;;;;;9.66;62.57;93381.16;4927567;28;20919;-76
2023/11/22 08:49:06;;;;;;;41.05;21.80;;;;;;;9.71;63.01;93375.66;4926762;28;20190;-75
2023/11/22 08:51:33;;;;;;;26.00;18.80;;;;;;;9.61;63.71;93362.75;4925929;28;20043;-75
2023/11/22 08:54:00;;;;;;;27.88;18.67;;;;;;;9.72;63.56;93385.19;4926331;28;20062;-75
2023/11/22 08:56:25;;;;;;;27.02;19.02;;;;;;;9.57;64.65;93385.72;4925562;28;20364;-76
2023/11/22 08:58:51;;;;;;;25.98;20.10;;;;;;;9.59;65.56;93381.63;4926765;28;20687;-76
2023/11/22 09:01:18;;;;;;;30.83;22.75;;;;;;;9.64;65.58;93388.63;4926601;28;20020;-76
2023/11/22 09:03:45;;;;;;;31.20;22.08;;;;;;;9.64;65.39;93388.63;4930009;28;21186;-75
2023/11/22 09:06:11;;;;;;;29.98;20.65;;;;;;;9.63;65.13;93397.72;4925745;28;20138;-76
2023/11/22 09:08:38;;;;;;;30.58;21.58;;;;;;;9.33;65.21;93400.28;4929688;28;20035;-76
2023/11/22 09:11:06;;;;;;;32.72;20.63;;;;;;;9.16;65.13;93386.25;4945311;28;20043;-76
2023/11/22 09:13:31;;;;;;;29.65;21.55;;;;;;;9.09;67.01;93397.31;4917929;28;20956;-76
2023/11/22 09:15:57;;;;;;;35.55;22.30;;;;;;;9.12;66.42;93403.88;4913781;28;20036;-76
2023/11/22 09:18:22;;;;;;;32.45;20.50;;;;;;;9.08;66.45;93408.22;4925931;28;20534;-76
2023/11/22 09:20:48;;;;;;;31.77;21.80;;;;;;;9.30;66.07;93411.50;4925775;28;20050;-75
2023/11/22 09:23:14;;;;;;;27.23;19.67;;;;;;;9.20;66.45;93419.78;4923773;28;20070;-76
2023/11/22 09:25:40;;;;;;;34.42;20.85;;;;;;;9.40;65.68;93410.41;4926932;28;20051;-76
2023/11/22 09:28:07;;;;;;;30.98;20.85;;;;;;;9.34;65.38;93419.66;4916304;28;20141;-75
2023/11/22 09:30:38;;;;;;;30.50;21.08;;;;;;;9.51;64.98;93408.19;4924820;28;20653;-75
2023/11/22 09:33:14;;;;;;;34.30;22.83;;;;;;;9.70;64.07;93424.56;4919964;28;20391;-76
2023/11/22 09:35:40;;;;;;;33.03;22.23;;;;;;;9.60;64.12;93411.63;4925672;28;20127;-75
2023/11/22 09:38:12;;;;;;;35.40;23.73;;;;;;;9.61;64.39;93399.91;4916654;28;20061;-77
2023/11/22 09:40:43;;;;;;;33.33;23.52;;;;;;;9.61;64.18;93418.50;4929002;28;20066;-76
2023/11/22 09:43:09;;;;;;;36.45;23.48;;;;;;;9.54;64.40;93421.63;4921961;28;20406;-75
2023/11/22 09:45:35;;;;;;;33.35;23.48;;;;;;;8.89;65.36;93411.19;4923302;28;20581;-76
2023/11/22 09:48:18;;;;;;;43.38;28.70;;;;;;;8.92;66.79;93435.22;4919955;28;20565;-76
2023/11/22 09:51:10;;;;;;;50.40;33.33;;;;;;;9.04;67.72;93429.31;4916688;28;20066;-75
2023/11/22 09:53:53;;;;;;;54.72;37.78;;;;;;;9.05;67.60;93430.84;4948059;28;20043;-76
2023/11/22 09:56:20;;;;;;;50.88;30.85;;;;;;;9.26;66.85;93421.19;4932103;28;20048;-75
2023/11/22 09:58:46;;;;;;;44.25;29.77;;;;;;;9.17;66.40;93399.19;4929319;28;20051;-75
2023/11/22 10:01:13;;;;;;;41.47;30.20;;;;;;;9.44;66.27;93412.09;4930692;28;20055;-75
2023/11/22 10:03:39;;;;;;;48.50;30.33;;;;;;;9.43;66.20;93399.97;4923903;28;20497;-75
2023/11/22 10:06:06;;;;;;;46.85;31.65;;;;;;;9.11;67.64;93408.41;4932941;28;20050;-76
2023/11/22 10:08:33;;;;;;;41.92;30.48;;;;;;;9.00;69.62;93407.13;4948743;28;20047;-75
2023/11/22 10:11:00;;;;;;;44.92;31.60;;;;;;;9.09;69.51;93389.34;4929098;28;20047;-76
2023/11/22 10:13:26;;;;;;;47.65;31.92;;;;;;;9.38;67.94;93412.59;4924462;28;20031;-76
2023/11/22 10:15:52;;;;;;;44.85;29.90;;;;;;;9.11;68.80;93402.28;4918089;28;20051;-77
2023/11/22 10:18:20;;;;;;;51.03;33.65;;;;;;;9.41;68.57;93404.78;4919685;28;20570;-77
2023/11/22 10:20:51;;;;;;;45.65;31.67;;;;;;;9.73;67.11;93413.31;4946675;28;20050;-76
2023/11/22 10:23:19;;;;;;;45.50;33.00;;;;;;;9.80;66.62;93413.59;4936267;28;20146;-75
2023/11/22 10:25:52;;;;;;;48.83;33.45;;;;;;;10.08;65.68;93417.41;4939601;28;20344;-75
2023/11/22 10:28:20;;;;;;;46.00;33.28;;;;;;;10.19;64.65;93413.28;4926768;28;20030;-75
2023/11/22 10:30:46;;;;;;;54.75;34.78;;;;;;;10.04;64.75;93413.03;4931469;28;20031;-76
2023/11/22 10:33:13;;;;;;;52.20;35.28;;;;;;;9.85;65.74;93408.91;4925527;28;20451;-75
2023/11/22 10:35:48;;;;;;;55.45;36.60;;;;;;;9.97;66.06;93402.94;4940255;28;20519;-76
2023/11/22 10:38:14;;;;;;;;;;;;;;;10.04;65.27;93411.16;4925946;28;20860;-76
2023/11/22 10:40:41;;;;;;;51.72;33.47;;;;;;;10.19;65.49;93407.97;4926794;28;19923;-75
2023/11/22 10:43:08;;;;;;;51.92;34.70;;;;;;;10.25;65.05;93412.03;4923464;28;20063;-76
2023/11/22 10:45:34;;;;;;;35.92;27.17;;;;;;;10.01;64.68;93403.06;4925306;28;20070;-76
2023/11/22 10:48:03;;;;;;;37.38;25.98;;;;;;;10.24;63.99;93413.13;4924121;28;20127;-75
2023/11/22 10:50:28;;;;;;;45.30;29.70;;;;;;;10.17;64.27;93412.81;4924943;28;20071;-74
2023/11/22 10:52:57;;;;;;;36.30;25.42;;;;;;;9.75;64.81;93409.25;4927266;28;20403;-75
2023/11/22 10:55:27;;;;;;;35.35;23.95;;;;;;;9.89;64.55;93419.66;4924405;28;20031;-76
2023/11/22 10:57:58;;;;;;;33.22;21.83;;;;;;;9.49;65.58;93384.63;4925308;28;20058;-75
2023/11/22 11:00:27;;;;;;;24.05;17.42;;;;;;;9.96;64.61;93414.66;4923520;28;20173;-75
2023/11/22 11:02:59;;;;;;;35.85;24.05;;;;;;;10.08;64.13;93404.09;4923982;28;20302;-75
2023/11/22 11:05:30;;;;;;;43.45;30.35;;;;;;;10.04;64.76;93407.72;4923827;28;20326;-75
2023/11/22 11:08:11;;;;;;;45.17;31.95;;;;;;;9.94;65.64;93411.50;4923205;28;20358;-75
2023/11/22 11:10:47;;;;;;;40.47;31.83;;;;;;;9.91;66.32;93419.34;4922522;28;20036;-75
2023/11/22 11:13:13;;;;;;;36.92;27.30;;;;;;;9.99;65.36;93403.38;4925088;28;20563;-75
2023/11/22 11:15:47;;;;;;;42.25;28.30;;;;;;;10.16;64.88;93419.25;4924886;28;20051;-76
2023/11/22 11:18:15;;;;;;;38.80;27.43;;;;;;;10.22;64.20;93420.63;4925818;28;20413;-75
2023/11/22 11:20:55;;;;;;;44.05;28.33;;;;;;;10.25;64.31;93414.69;4923388;28;20388;-76
2023/11/22 11:23:23;;;;;;;41.53;27.00;;;;;;;10.08;64.15;93400.66;4922708;28;20036;-75
2023/11/22 11:25:57;;;;;;;34.13;26.08;;;;;;;10.29;63.55;93420.13;4924947;28;20267;-75